sensor_id;sensor_type;location;lat;lon;timestamp;temperature;humidity
13794;DHT22;31160;49.500;7.772;2022-11-15T00:01:43;11.20;99.90
13794;DHT22;31160;49.500;7.772;2022-11-15T00:04:28;11.20;99.90
13794;DHT22;31160;49.500;7.772;2022-11-15T00:07:14;11.00;99.90
13794;DHT22;31160;49.500;7.772;2022-11-15T00:10:19;10.90;99.90
13794;DHT22;31160;49.500;7.772;2022-11-15T00:13:11;11.00;99.90
13794;DHT22;31160;49.500;7.772;2022-11-15T00:15:58;10.90;99.90
13794;DHT22;31160;49.500;7.772;2022-11-15T00:18:43;10.80;99.90
13794;DHT22;31160;49.500;7.772;2022-11-15T00:21:35;10.80;99.90
13794;DHT22;31160;49.500;7.772;2022-11-15T00:24:20;10.80;99.90
13794;DHT22;31160;49.500;7.772;2022-11-15T00:27:05;10.80;99.90
13794;DHT22;31160;49.500;7.772;2022-11-15T00:29:52;10.80;99.90
13794;DHT22;31160;49.500;7.772;2022-11-15T00:32:38;10.70;99.90
13794;DHT22;31160;49.500;7.772;2022-11-15T00:35:23;10.70;99.90
13794;DHT22;31160;49.500;7.772;2022-11-15T00:38:09;10.70;99.90
13794;DHT22;31160;49.500;7.772;2022-11-15T00:40:54;10.60;99.90
13794;DHT22;31160;49.500;7.772;2022-11-15T00:43:39;10.60;99.90
13794;DHT22;31160;49.500;7.772;2022-11-15T00:46:27;10.80;99.90
13794;DHT22;31160;49.500;7.772;2022-11-15T00:49:12;10.70;99.90
13794;DHT22;31160;49.500;7.772;2022-11-15T00:51:57;10.70;99.90
13794;DHT22;31160;49.500;7.772;2022-11-15T00:54:43;10.80;99.90
13794;DHT22;31160;49.500;7.772;2022-11-15T00:57:28;10.80;99.90
13794;DHT22;31160;49.500;7.772;2022-11-15T01:00:14;10.80;99.90
13794;DHT22;31160;49.500;7.772;2022-11-15T01:03:02;10.80;99.90
13794;DHT22;31160;49.500;7.772;2022-11-15T01:05:48;10.90;99.90
13794;DHT22;31160;49.500;7.772;2022-11-15T01:08:33;10.80;99.90
13794;DHT22;31160;49.500;7.772;2022-11-15T01:11:18;10.80;99.90
13794;DHT22;31160;49.500;7.772;2022-11-15T01:14:04;11.00;99.90
13794;DHT22;31160;49.500;7.772;2022-11-15T01:16:49;10.90;99.90
13794;DHT22;31160;49.500;7.772;2022-11-15T01:19:34;10.90;99.90
13794;DHT22;31160;49.500;7.772;2022-11-15T01:22:20;11.00;99.90
13794;DHT22;31160;49.500;7.772;2022-11-15T01:25:05;11.10;99.90
13794;DHT22;31160;49.500;7.772;2022-11-15T01:27:50;11.10;99.90
13794;DHT22;31160;49.500;7.772;2022-11-15T01:30:36;11.20;99.90
13794;DHT22;31160;49.500;7.772;2022-11-15T01:33:21;11.20;99.90
13794;DHT22;31160;49.500;7.772;2022-11-15T01:36:25;11.10;99.90
13794;DHT22;31160;49.500;7.772;2022-11-15T01:39:10;11.20;99.90
13794;DHT22;31160;49.500;7.772;2022-11-15T01:41:55;11.20;99.90
13794;DHT22;31160;49.500;7.772;2022-11-15T01:44:48;11.20;99.90
13794;DHT22;31160;49.500;7.772;2022-11-15T01:47:40;11.20;99.90
13794;DHT22;31160;49.500;7.772;2022-11-15T01:50:30;11.20;99.90
13794;DHT22;31160;49.500;7.772;2022-11-15T01:53:19;11.30;99.90
13794;DHT22;31160;49.500;7.772;2022-11-15T01:56:08;11.40;99.90
13794;DHT22;31160;49.500;7.772;2022-11-15T01:58:57;11.60;99.90
13794;DHT22;31160;49.500;7.772;2022-11-15T02:01:43;11.50;99.90
13794;DHT22;31160;49.500;7.772;2022-11-15T02:04:32;11.50;99.90
13794;DHT22;31160;49.500;7.772;2022-11-15T02:07:20;11.40;99.90
13794;DHT22;31160;49.500;7.772;2022-11-15T02:10:17;11.40;99.90
13794;DHT22;31160;49.500;7.772;2022-11-15T02:13:03;11.50;99.90
13794;DHT22;31160;49.500;7.772;2022-11-15T02:16:02;11.50;99.90
13794;DHT22;31160;49.500;7.772;2022-11-15T02:28:35;11.50;99.90
13794;DHT22;31160;49.500;7.772;2022-11-15T02:31:45;11.50;99.90
13794;DHT22;31160;49.500;7.772;2022-11-15T02:41:07;11.40;99.90
13794;DHT22;31160;49.500;7.772;2022-11-15T02:44:17;11.50;99.90
13794;DHT22;31160;49.500;7.772;2022-11-15T02:47:08;11.50;99.90
13794;DHT22;31160;49.500;7.772;2022-11-15T02:50:07;11.50;99.90
13794;DHT22;31160;49.500;7.772;2022-11-15T02:52:53;11.50;99.90
13794;DHT22;31160;49.500;7.772;2022-11-15T02:55:44;11.50;99.90
13794;DHT22;31160;49.500;7.772;2022-11-15T02:59:05;11.50;99.90
13794;DHT22;31160;49.500;7.772;2022-11-15T03:04:56;11.50;99.90
13794;DHT22;31160;49.500;7.772;2022-11-15T03:11:03;11.40;99.90
13794;DHT22;31160;49.500;7.772;2022-11-15T03:14:03;11.50;99.90
13794;DHT22;31160;49.500;7.772;2022-11-15T03:19:58;11.40;99.90
13794;DHT22;31160;49.500;7.772;2022-11-15T03:22:45;11.40;99.90
13794;DHT22;31160;49.500;7.772;2022-11-15T03:25:33;11.40;99.90
13794;DHT22;31160;49.500;7.772;2022-11-15T03:28:27;11.40;99.90
13794;DHT22;31160;49.500;7.772;2022-11-15T03:31:14;11.40;99.90
13794;DHT22;31160;49.500;7.772;2022-11-15T03:37:17;11.50;99.90
13794;DHT22;31160;49.500;7.772;2022-11-15T03:40:06;11.50;99.90
13794;DHT22;31160;49.500;7.772;2022-11-15T03:43:07;11.50;99.90
13794;DHT22;31160;49.500;7.772;2022-11-15T03:46:13;11.60;99.90
13794;DHT22;31160;49.500;7.772;2022-11-15T03:49:22;11.60;99.90
13794;DHT22;31160;49.500;7.772;2022-11-15T03:52:09;11.60;99.90
13794;DHT22;31160;49.500;7.772;2022-11-15T03:54:56;11.60;99.90
13794;DHT22;31160;49.500;7.772;2022-11-15T03:57:42;11.60;99.90
13794;DHT22;31160;49.500;7.772;2022-11-15T04:00:28;11.60;99.90
13794;DHT22;31160;49.500;7.772;2022-11-15T04:03:13;11.60;99.90
13794;DHT22;31160;49.500;7.772;2022-11-15T04:05:58;11.50;99.90
13794;DHT22;31160;49.500;7.772;2022-11-15T04:08:44;11.60;99.90
13794;DHT22;31160;49.500;7.772;2022-11-15T04:11:29;11.60;99.90
13794;DHT22;31160;49.500;7.772;2022-11-15T04:14:15;11.60;99.90
13794;DHT22;31160;49.500;7.772;2022-11-15T04:17:00;11.70;99.90
13794;DHT22;31160;49.500;7.772;2022-11-15T04:19:45;11.60;99.90
13794;DHT22;31160;49.500;7.772;2022-11-15T04:22:52;11.60;99.90
13794;DHT22;31160;49.500;7.772;2022-11-15T04:26:00;11.50;99.90
13794;DHT22;31160;49.500;7.772;2022-11-15T04:28:46;11.50;99.90
13794;DHT22;31160;49.500;7.772;2022-11-15T04:31:50;11.50;99.90
13794;DHT22;31160;49.500;7.772;2022-11-15T04:34:36;11.50;99.90
13794;DHT22;31160;49.500;7.772;2022-11-15T04:37:23;11.60;99.90
13794;DHT22;31160;49.500;7.772;2022-11-15T04:40:09;11.50;99.90
13794;DHT22;31160;49.500;7.772;2022-11-15T04:42:55;11.60;99.90
13794;DHT22;31160;49.500;7.772;2022-11-15T04:45:47;11.50;99.90
13794;DHT22;31160;49.500;7.772;2022-11-15T04:48:33;11.40;99.90
13794;DHT22;31160;49.500;7.772;2022-11-15T04:51:19;11.40;99.90
13794;DHT22;31160;49.500;7.772;2022-11-15T04:54:04;11.50;99.90
13794;DHT22;31160;49.500;7.772;2022-11-15T04:56:49;11.50;99.90
13794;DHT22;31160;49.500;7.772;2022-11-15T04:59:35;11.40;99.90
13794;DHT22;31160;49.500;7.772;2022-11-15T05:02:20;11.40;99.90
13794;DHT22;31160;49.500;7.772;2022-11-15T05:05:05;11.30;99.90
13794;DHT22;31160;49.500;7.772;2022-11-15T05:07:51;11.30;99.90
13794;DHT22;31160;49.500;7.772;2022-11-15T05:10:36;11.20;99.90
13794;DHT22;31160;49.500;7.772;2022-11-15T05:13:22;11.20;99.90
13794;DHT22;31160;49.500;7.772;2022-11-15T05:16:07;11.20;99.90
13794;DHT22;31160;49.500;7.772;2022-11-15T05:18:53;11.20;99.90
13794;DHT22;31160;49.500;7.772;2022-11-15T05:21:39;11.10;99.90
13794;DHT22;31160;49.500;7.772;2022-11-15T05:24:24;11.10;99.90
13794;DHT22;31160;49.500;7.772;2022-11-15T05:27:09;11.00;99.90
13794;DHT22;31160;49.500;7.772;2022-11-15T05:29:55;10.90;99.90
13794;DHT22;31160;49.500;7.772;2022-11-15T05:32:40;10.80;99.90
13794;DHT22;31160;49.500;7.772;2022-11-15T05:35:34;10.80;99.90
13794;DHT22;31160;49.500;7.772;2022-11-15T05:38:23;10.80;99.90
13794;DHT22;31160;49.500;7.772;2022-11-15T05:41:09;10.70;99.90
13794;DHT22;31160;49.500;7.772;2022-11-15T05:43:55;10.50;99.90
13794;DHT22;31160;49.500;7.772;2022-11-15T05:46:41;10.50;99.90
13794;DHT22;31160;49.500;7.772;2022-11-15T05:49:31;10.40;99.90
13794;DHT22;31160;49.500;7.772;2022-11-15T05:52:20;10.40;99.90
13794;DHT22;31160;49.500;7.772;2022-11-15T05:55:06;10.40;99.90
13794;DHT22;31160;49.500;7.772;2022-11-15T05:57:52;10.40;99.90
13794;DHT22;31160;49.500;7.772;2022-11-15T06:00:37;10.40;99.90
13794;DHT22;31160;49.500;7.772;2022-11-15T06:03:23;10.50;99.90
13794;DHT22;31160;49.500;7.772;2022-11-15T06:06:08;10.40;99.90
13794;DHT22;31160;49.500;7.772;2022-11-15T06:09:00;10.40;99.90
13794;DHT22;31160;49.500;7.772;2022-11-15T06:11:45;10.40;99.90
13794;DHT22;31160;49.500;7.772;2022-11-15T06:14:31;10.40;99.90
13794;DHT22;31160;49.500;7.772;2022-11-15T06:17:17;10.40;99.90
13794;DHT22;31160;49.500;7.772;2022-11-15T06:20:02;10.50;99.90
13794;DHT22;31160;49.500;7.772;2022-11-15T06:22:48;10.40;99.90
13794;DHT22;31160;49.500;7.772;2022-11-15T06:25:33;10.30;99.90
13794;DHT22;31160;49.500;7.772;2022-11-15T06:28:19;10.20;99.90
13794;DHT22;31160;49.500;7.772;2022-11-15T06:31:07;10.20;99.90
13794;DHT22;31160;49.500;7.772;2022-11-15T06:33:53;10.30;99.90
13794;DHT22;31160;49.500;7.772;2022-11-15T06:36:38;10.30;99.90
13794;DHT22;31160;49.500;7.772;2022-11-15T06:39:24;10.30;99.90
13794;DHT22;31160;49.500;7.772;2022-11-15T06:42:09;10.40;99.90
13794;DHT22;31160;49.500;7.772;2022-11-15T06:44:54;10.40;99.90
13794;DHT22;31160;49.500;7.772;2022-11-15T06:47:46;10.40;99.90
13794;DHT22;31160;49.500;7.772;2022-11-15T06:50:32;10.50;99.90
13794;DHT22;31160;49.500;7.772;2022-11-15T06:53:18;10.40;99.90
13794;DHT22;31160;49.500;7.772;2022-11-15T06:56:05;10.30;99.90
13794;DHT22;31160;49.500;7.772;2022-11-15T06:58:51;10.30;99.90
13794;DHT22;31160;49.500;7.772;2022-11-15T07:01:36;10.30;99.90
13794;DHT22;31160;49.500;7.772;2022-11-15T07:04:21;10.40;99.90
13794;DHT22;31160;49.500;7.772;2022-11-15T07:07:07;10.40;99.90
13794;DHT22;31160;49.500;7.772;2022-11-15T07:09:52;10.40;99.90
13794;DHT22;31160;49.500;7.772;2022-11-15T07:12:38;10.40;99.90
13794;DHT22;31160;49.500;7.772;2022-11-15T07:15:25;10.40;99.90
13794;DHT22;31160;49.500;7.772;2022-11-15T07:18:10;10.50;99.90
13794;DHT22;31160;49.500;7.772;2022-11-15T07:21:00;10.40;99.90
13794;DHT22;31160;49.500;7.772;2022-11-15T07:23:45;10.50;99.90
13794;DHT22;31160;49.500;7.772;2022-11-15T07:26:31;10.50;99.90
13794;DHT22;31160;49.500;7.772;2022-11-15T07:29:17;10.50;99.90
13794;DHT22;31160;49.500;7.772;2022-11-15T07:32:02;10.50;99.90
13794;DHT22;31160;49.500;7.772;2022-11-15T07:34:47;10.50;99.90
13794;DHT22;31160;49.500;7.772;2022-11-15T07:37:33;10.50;99.90
13794;DHT22;31160;49.500;7.772;2022-11-15T07:40:18;10.50;99.90
13794;DHT22;31160;49.500;7.772;2022-11-15T07:43:06;10.50;99.90
13794;DHT22;31160;49.500;7.772;2022-11-15T07:45:51;10.50;99.90
13794;DHT22;31160;49.500;7.772;2022-11-15T07:48:43;10.50;99.90
13794;DHT22;31160;49.500;7.772;2022-11-15T07:51:30;10.40;99.90
13794;DHT22;31160;49.500;7.772;2022-11-15T07:54:15;10.50;99.90
13794;DHT22;31160;49.500;7.772;2022-11-15T07:57:01;10.60;99.90
13794;DHT22;31160;49.500;7.772;2022-11-15T07:59:51;10.60;99.90
13794;DHT22;31160;49.500;7.772;2022-11-15T08:02:36;10.60;99.90
13794;DHT22;31160;49.500;7.772;2022-11-15T08:05:22;10.60;99.90
13794;DHT22;31160;49.500;7.772;2022-11-15T08:08:09;10.70;99.90
13794;DHT22;31160;49.500;7.772;2022-11-15T08:10:54;10.70;99.90
13794;DHT22;31160;49.500;7.772;2022-11-15T08:13:42;10.90;99.90
13794;DHT22;31160;49.500;7.772;2022-11-15T08:16:27;10.90;99.90
13794;DHT22;31160;49.500;7.772;2022-11-15T08:19:13;11.10;99.90
13794;DHT22;31160;49.500;7.772;2022-11-15T08:21:58;11.20;99.90
13794;DHT22;31160;49.500;7.772;2022-11-15T08:24:44;11.20;99.90
13794;DHT22;31160;49.500;7.772;2022-11-15T08:27:29;11.30;99.90
13794;DHT22;31160;49.500;7.772;2022-11-15T08:30:15;11.30;99.90
13794;DHT22;31160;49.500;7.772;2022-11-15T08:33:01;11.30;99.90
13794;DHT22;31160;49.500;7.772;2022-11-15T08:35:46;11.40;99.90
13794;DHT22;31160;49.500;7.772;2022-11-15T08:38:32;11.50;99.90
13794;DHT22;31160;49.500;7.772;2022-11-15T08:41:30;11.60;99.90
13794;DHT22;31160;49.500;7.772;2022-11-15T08:44:16;11.70;99.90
13794;DHT22;31160;49.500;7.772;2022-11-15T08:47:01;11.80;99.90
13794;DHT22;31160;49.500;7.772;2022-11-15T08:49:46;11.90;99.90
13794;DHT22;31160;49.500;7.772;2022-11-15T08:52:32;12.00;99.90
13794;DHT22;31160;49.500;7.772;2022-11-15T08:55:17;12.10;99.90
13794;DHT22;31160;49.500;7.772;2022-11-15T08:58:03;12.20;99.90
13794;DHT22;31160;49.500;7.772;2022-11-15T09:00:48;12.20;99.90
13794;DHT22;31160;49.500;7.772;2022-11-15T09:03:33;12.20;99.90
13794;DHT22;31160;49.500;7.772;2022-11-15T09:06:19;12.30;99.90
13794;DHT22;31160;49.500;7.772;2022-11-15T09:09:04;12.30;99.90
13794;DHT22;31160;49.500;7.772;2022-11-15T09:11:49;12.40;99.90
13794;DHT22;31160;49.500;7.772;2022-11-15T09:14:35;12.50;99.90
13794;DHT22;31160;49.500;7.772;2022-11-15T09:17:21;12.50;99.90
13794;DHT22;31160;49.500;7.772;2022-11-15T09:20:09;12.50;99.90
13794;DHT22;31160;49.500;7.772;2022-11-15T09:22:59;12.50;99.90
13794;DHT22;31160;49.500;7.772;2022-11-15T09:25:44;12.60;99.90
13794;DHT22;31160;49.500;7.772;2022-11-15T09:28:31;12.70;99.90
13794;DHT22;31160;49.500;7.772;2022-11-15T09:31:16;12.70;99.90
13794;DHT22;31160;49.500;7.772;2022-11-15T09:34:06;12.80;99.90
13794;DHT22;31160;49.500;7.772;2022-11-15T09:36:51;13.00;99.90
13794;DHT22;31160;49.500;7.772;2022-11-15T09:39:36;13.10;99.90
13794;DHT22;31160;49.500;7.772;2022-11-15T09:42:35;13.20;99.90
13794;DHT22;31160;49.500;7.772;2022-11-15T09:48:59;13.30;99.90
13794;DHT22;31160;49.500;7.772;2022-11-15T09:51:33;13.30;99.90
13794;DHT22;31160;49.500;7.772;2022-11-15T09:54:10;13.20;99.90
13794;DHT22;31160;49.500;7.772;2022-11-15T09:57:05;13.20;99.90
13794;DHT22;31160;49.500;7.772;2022-11-15T09:59:51;13.20;99.90
13794;DHT22;31160;49.500;7.772;2022-11-15T10:05:10;13.40;99.90
13794;DHT22;31160;49.500;7.772;2022-11-15T10:10:34;13.10;99.90
13794;DHT22;31160;49.500;7.772;2022-11-15T10:13:03;13.40;99.90
13794;DHT22;31160;49.500;7.772;2022-11-15T10:15:31;13.50;99.90
13794;DHT22;31160;49.500;7.772;2022-11-15T10:20:51;13.60;99.90
13794;DHT22;31160;49.500;7.772;2022-11-15T10:23:21;13.60;99.90
13794;DHT22;31160;49.500;7.772;2022-11-15T10:25:52;13.30;99.90
13794;DHT22;31160;49.500;7.772;2022-11-15T10:28:25;13.70;99.90
13794;DHT22;31160;49.500;7.772;2022-11-15T10:30:55;13.70;99.90
13794;DHT22;31160;49.500;7.772;2022-11-15T10:33:36;13.80;99.90
13794;DHT22;31160;49.500;7.772;2022-11-15T10:41:19;13.70;99.90
13794;DHT22;31160;49.500;7.772;2022-11-15T10:44:19;13.70;99.90
13794;DHT22;31160;49.500;7.772;2022-11-15T10:49:29;13.90;99.90
13794;DHT22;31160;49.500;7.772;2022-11-15T10:56:58;14.40;99.90
13794;DHT22;31160;49.500;7.772;2022-11-15T10:59:29;14.50;99.90
13794;DHT22;31160;49.500;7.772;2022-11-15T11:04:53;14.70;99.90
13794;DHT22;31160;49.500;7.772;2022-11-15T11:07:29;14.80;99.90
13794;DHT22;31160;49.500;7.772;2022-11-15T11:10:05;14.90;99.90
13794;DHT22;31160;49.500;7.772;2022-11-15T11:13:23;15.00;99.90
13794;DHT22;31160;49.500;7.772;2022-11-15T11:27:13;15.20;99.90
13794;DHT22;31160;49.500;7.772;2022-11-15T11:35:59;15.20;99.90
13794;DHT22;31160;49.500;7.772;2022-11-15T11:44:11;14.80;99.90
13794;DHT22;31160;49.500;7.772;2022-11-15T11:46:47;15.00;99.90
13794;DHT22;31160;49.500;7.772;2022-11-15T11:49:28;14.90;99.90
13794;DHT22;31160;49.500;7.772;2022-11-15T11:55:00;14.70;99.90
13794;DHT22;31160;49.500;7.772;2022-11-15T11:57:53;14.60;99.90
13794;DHT22;31160;49.500;7.772;2022-11-15T12:00:24;14.80;99.90
13794;DHT22;31160;49.500;7.772;2022-11-15T12:03:22;15.00;99.90
13794;DHT22;31160;49.500;7.772;2022-11-15T12:06:01;15.00;99.90
13794;DHT22;31160;49.500;7.772;2022-11-15T12:08:40;15.10;99.90
13794;DHT22;31160;49.500;7.772;2022-11-15T12:13:43;15.10;99.90
13794;DHT22;31160;49.500;7.772;2022-11-15T12:16:16;15.20;99.90
13794;DHT22;31160;49.500;7.772;2022-11-15T12:18:47;15.30;99.90
13794;DHT22;31160;49.500;7.772;2022-11-15T12:24:15;15.20;99.90
13794;DHT22;31160;49.500;7.772;2022-11-15T12:26:57;15.30;99.90
13794;DHT22;31160;49.500;7.772;2022-11-15T12:30:20;15.30;99.90
13794;DHT22;31160;49.500;7.772;2022-11-15T12:32:47;15.20;99.90
13794;DHT22;31160;49.500;7.772;2022-11-15T12:35:28;15.00;99.90
13794;DHT22;31160;49.500;7.772;2022-11-15T12:37:56;15.10;99.90
13794;DHT22;31160;49.500;7.772;2022-11-15T12:40:30;15.10;99.90
13794;DHT22;31160;49.500;7.772;2022-11-15T12:43:03;15.10;99.90
13794;DHT22;31160;49.500;7.772;2022-11-15T13:06:55;14.80;99.90
13794;DHT22;31160;49.500;7.772;2022-11-15T13:17:35;15.00;99.90
13794;DHT22;31160;49.500;7.772;2022-11-15T13:22:45;14.80;99.90
13794;DHT22;31160;49.500;7.772;2022-11-15T13:30:37;14.90;99.90
13794;DHT22;31160;49.500;7.772;2022-11-15T13:33:24;14.80;99.90
13794;DHT22;31160;49.500;7.772;2022-11-15T13:36:12;14.90;99.90
13794;DHT22;31160;49.500;7.772;2022-11-15T13:38:43;15.00;99.90
13794;DHT22;31160;49.500;7.772;2022-11-15T13:41:22;15.10;99.90
13794;DHT22;31160;49.500;7.772;2022-11-15T13:43:50;15.10;99.90
13794;DHT22;31160;49.500;7.772;2022-11-15T13:46:33;14.90;99.90
13794;DHT22;31160;49.500;7.772;2022-11-15T13:49:08;14.90;99.90
13794;DHT22;31160;49.500;7.772;2022-11-15T13:54:20;14.60;99.90
13794;DHT22;31160;49.500;7.772;2022-11-15T13:57:18;14.70;99.90
13794;DHT22;31160;49.500;7.772;2022-11-15T14:00:00;14.60;99.90
13794;DHT22;31160;49.500;7.772;2022-11-15T14:02:37;14.70;99.90
13794;DHT22;31160;49.500;7.772;2022-11-15T14:05:21;14.70;99.90
13794;DHT22;31160;49.500;7.772;2022-11-15T14:07:56;14.70;99.90
13794;DHT22;31160;49.500;7.772;2022-11-15T14:10:34;14.70;99.90
13794;DHT22;31160;49.500;7.772;2022-11-15T14:13:03;14.70;99.90
13794;DHT22;31160;49.500;7.772;2022-11-15T14:15:31;14.70;99.90
13794;DHT22;31160;49.500;7.772;2022-11-15T14:17:59;14.70;99.90
13794;DHT22;31160;49.500;7.772;2022-11-15T14:20:30;14.70;99.90
13794;DHT22;31160;49.500;7.772;2022-11-15T14:23:03;14.60;99.90
13794;DHT22;31160;49.500;7.772;2022-11-15T14:25:32;14.70;99.90
13794;DHT22;31160;49.500;7.772;2022-11-15T14:30:45;14.70;99.90
13794;DHT22;31160;49.500;7.772;2022-11-15T14:33:33;14.60;99.90
13794;DHT22;31160;49.500;7.772;2022-11-15T14:36:15;14.70;99.90
13794;DHT22;31160;49.500;7.772;2022-11-15T14:38:42;14.70;99.90
13794;DHT22;31160;49.500;7.772;2022-11-15T14:41:22;14.60;99.90
13794;DHT22;31160;49.500;7.772;2022-11-15T14:43:50;14.70;99.90
13794;DHT22;31160;49.500;7.772;2022-11-15T14:46:17;14.60;99.90
13794;DHT22;31160;49.500;7.772;2022-11-15T14:48:44;14.50;99.90
13794;DHT22;31160;49.500;7.772;2022-11-15T14:51:12;14.20;99.90
13794;DHT22;31160;49.500;7.772;2022-11-15T14:53:42;14.30;99.90
13794;DHT22;31160;49.500;7.772;2022-11-15T14:56:09;14.30;99.90
13794;DHT22;31160;49.500;7.772;2022-11-15T14:58:36;14.20;99.90
13794;DHT22;31160;49.500;7.772;2022-11-15T15:01:12;14.20;99.90
13794;DHT22;31160;49.500;7.772;2022-11-15T15:03:39;14.20;99.90
13794;DHT22;31160;49.500;7.772;2022-11-15T15:06:06;14.20;99.90
13794;DHT22;31160;49.500;7.772;2022-11-15T15:08:43;14.10;99.90
13794;DHT22;31160;49.500;7.772;2022-11-15T15:11:14;14.00;99.90
13794;DHT22;31160;49.500;7.772;2022-11-15T15:13:42;14.00;99.90
13794;DHT22;31160;49.500;7.772;2022-11-15T15:16:09;14.00;99.90
13794;DHT22;31160;49.500;7.772;2022-11-15T15:18:36;13.90;99.90
13794;DHT22;31160;49.500;7.772;2022-11-15T15:21:22;14.00;99.90
13794;DHT22;31160;49.500;7.772;2022-11-15T15:23:49;14.00;99.90
13794;DHT22;31160;49.500;7.772;2022-11-15T15:26:16;14.00;99.90
13794;DHT22;31160;49.500;7.772;2022-11-15T15:28:43;14.00;99.90
13794;DHT22;31160;49.500;7.772;2022-11-15T15:31:10;13.90;99.90
13794;DHT22;31160;49.500;7.772;2022-11-15T15:33:37;13.90;99.90
13794;DHT22;31160;49.500;7.772;2022-11-15T15:36:04;13.70;99.90
13794;DHT22;31160;49.500;7.772;2022-11-15T15:38:31;13.80;99.90
13794;DHT22;31160;49.500;7.772;2022-11-15T15:40:58;13.90;99.90
13794;DHT22;31160;49.500;7.772;2022-11-15T15:43:26;13.80;99.90
13794;DHT22;31160;49.500;7.772;2022-11-15T15:45:52;13.90;99.90
13794;DHT22;31160;49.500;7.772;2022-11-15T15:48:19;13.70;99.90
13794;DHT22;31160;49.500;7.772;2022-11-15T15:50:46;13.70;99.90
13794;DHT22;31160;49.500;7.772;2022-11-15T15:53:13;13.80;99.90
13794;DHT22;31160;49.500;7.772;2022-11-15T15:55:40;13.70;99.90
13794;DHT22;31160;49.500;7.772;2022-11-15T15:58:07;13.60;99.90
13794;DHT22;31160;49.500;7.772;2022-11-15T16:00:34;13.60;99.90
13794;DHT22;31160;49.500;7.772;2022-11-15T16:03:02;13.50;99.90
13794;DHT22;31160;49.500;7.772;2022-11-15T16:05:29;13.50;99.90
13794;DHT22;31160;49.500;7.772;2022-11-15T16:07:55;13.40;99.90
13794;DHT22;31160;49.500;7.772;2022-11-15T16:10:27;13.50;99.90
13794;DHT22;31160;49.500;7.772;2022-11-15T16:12:55;13.40;99.90
13794;DHT22;31160;49.500;7.772;2022-11-15T16:15:25;13.50;99.90
13794;DHT22;31160;49.500;7.772;2022-11-15T16:17:54;13.50;99.90
13794;DHT22;31160;49.500;7.772;2022-11-15T16:22:50;13.70;99.90
13794;DHT22;31160;49.500;7.772;2022-11-15T16:25:17;13.50;99.90
13794;DHT22;31160;49.500;7.772;2022-11-15T16:27:44;13.40;99.90
13794;DHT22;31160;49.500;7.772;2022-11-15T16:30:16;13.40;99.90
13794;DHT22;31160;49.500;7.772;2022-11-15T16:32:43;13.30;99.90
13794;DHT22;31160;49.500;7.772;2022-11-15T16:35:14;13.20;99.90
13794;DHT22;31160;49.500;7.772;2022-11-15T16:37:42;13.20;99.90
13794;DHT22;31160;49.500;7.772;2022-11-15T16:40:28;13.20;99.90
13794;DHT22;31160;49.500;7.772;2022-11-15T16:42:57;13.20;99.90
13794;DHT22;31160;49.500;7.772;2022-11-15T16:45:23;13.10;99.90
13794;DHT22;31160;49.500;7.772;2022-11-15T16:47:52;13.10;99.90
13794;DHT22;31160;49.500;7.772;2022-11-15T16:52:57;13.10;99.90
13794;DHT22;31160;49.500;7.772;2022-11-15T16:55:26;13.10;99.90
13794;DHT22;31160;49.500;7.772;2022-11-15T16:57:54;13.10;99.90
13794;DHT22;31160;49.500;7.772;2022-11-15T17:00:21;13.10;99.90
13794;DHT22;31160;49.500;7.772;2022-11-15T17:02:49;13.20;99.90
13794;DHT22;31160;49.500;7.772;2022-11-15T17:05:17;13.20;99.90
13794;DHT22;31160;49.500;7.772;2022-11-15T17:07:47;13.10;99.90
13794;DHT22;31160;49.500;7.772;2022-11-15T17:10:24;13.20;99.90
13794;DHT22;31160;49.500;7.772;2022-11-15T17:12:53;13.10;99.90
13794;DHT22;31160;49.500;7.772;2022-11-15T17:15:20;13.00;99.90
13794;DHT22;31160;49.500;7.772;2022-11-15T17:17:54;12.90;99.90
13794;DHT22;31160;49.500;7.772;2022-11-15T17:20:23;12.90;99.90
13794;DHT22;31160;49.500;7.772;2022-11-15T17:22:50;12.80;99.90
13794;DHT22;31160;49.500;7.772;2022-11-15T17:25:18;12.80;99.90
13794;DHT22;31160;49.500;7.772;2022-11-15T17:27:45;12.80;99.90
13794;DHT22;31160;49.500;7.772;2022-11-15T17:30:12;12.80;99.90
13794;DHT22;31160;49.500;7.772;2022-11-15T17:32:41;12.80;99.90
13794;DHT22;31160;49.500;7.772;2022-11-15T17:35:09;12.80;99.90
13794;DHT22;31160;49.500;7.772;2022-11-15T17:37:41;12.80;99.90
13794;DHT22;31160;49.500;7.772;2022-11-15T17:40:09;12.70;99.90
13794;DHT22;31160;49.500;7.772;2022-11-15T17:42:35;12.70;99.90
13794;DHT22;31160;49.500;7.772;2022-11-15T17:45:02;12.70;99.90
13794;DHT22;31160;49.500;7.772;2022-11-15T17:47:35;12.60;99.90
13794;DHT22;31160;49.500;7.772;2022-11-15T17:50:02;12.60;99.90
13794;DHT22;31160;49.500;7.772;2022-11-15T17:52:29;12.50;99.90
13794;DHT22;31160;49.500;7.772;2022-11-15T17:54:56;12.50;99.90
13794;DHT22;31160;49.500;7.772;2022-11-15T17:57:22;12.60;99.90
13794;DHT22;31160;49.500;7.772;2022-11-15T17:59:49;12.50;99.90
13794;DHT22;31160;49.500;7.772;2022-11-15T18:02:16;12.50;99.90
13794;DHT22;31160;49.500;7.772;2022-11-15T18:04:43;12.40;99.90
13794;DHT22;31160;49.500;7.772;2022-11-15T18:07:09;12.50;99.90
13794;DHT22;31160;49.500;7.772;2022-11-15T18:09:38;12.50;99.90
13794;DHT22;31160;49.500;7.772;2022-11-15T18:12:08;12.60;99.90
13794;DHT22;31160;49.500;7.772;2022-11-15T18:14:35;12.40;99.90
13794;DHT22;31160;49.500;7.772;2022-11-15T18:17:02;12.40;99.90
13794;DHT22;31160;49.500;7.772;2022-11-15T18:19:29;12.30;99.90
13794;DHT22;31160;49.500;7.772;2022-11-15T18:21:55;12.30;99.90
13794;DHT22;31160;49.500;7.772;2022-11-15T18:24:27;12.30;99.90
13794;DHT22;31160;49.500;7.772;2022-11-15T18:26:55;12.30;99.90
13794;DHT22;31160;49.500;7.772;2022-11-15T18:29:22;12.30;99.90
13794;DHT22;31160;49.500;7.772;2022-11-15T18:31:52;12.30;99.90
13794;DHT22;31160;49.500;7.772;2022-11-15T18:34:24;12.30;99.90
13794;DHT22;31160;49.500;7.772;2022-11-15T18:36:52;12.40;99.90
13794;DHT22;31160;49.500;7.772;2022-11-15T18:39:19;12.40;99.90
13794;DHT22;31160;49.500;7.772;2022-11-15T18:41:46;12.30;99.90
13794;DHT22;31160;49.500;7.772;2022-11-15T18:44:14;12.30;99.90
13794;DHT22;31160;49.500;7.772;2022-11-15T18:46:41;12.30;99.90
13794;DHT22;31160;49.500;7.772;2022-11-15T18:49:11;12.30;99.90
13794;DHT22;31160;49.500;7.772;2022-11-15T18:51:39;12.30;99.90
13794;DHT22;31160;49.500;7.772;2022-11-15T18:54:09;12.20;99.90
13794;DHT22;31160;49.500;7.772;2022-11-15T18:56:38;12.20;99.90
13794;DHT22;31160;49.500;7.772;2022-11-15T18:59:05;12.20;99.90
13794;DHT22;31160;49.500;7.772;2022-11-15T19:01:34;12.20;99.90
13794;DHT22;31160;49.500;7.772;2022-11-15T19:04:24;12.10;99.90
13794;DHT22;31160;49.500;7.772;2022-11-15T19:06:50;12.10;99.90
13794;DHT22;31160;49.500;7.772;2022-11-15T19:09:18;12.00;99.90